sensor_id;sensor_type;location;lat;lon;timestamp;P1;durP1;ratioP1;P2;durP2;ratioP2
51664;SDS011;37751;52.408;12.536;2023-11-19T00:01:48;13.80;;;9.17;;
51664;SDS011;37751;52.408;12.536;2023-11-19T00:04:19;14.50;;;8.97;;
51664;SDS011;37751;52.408;12.536;2023-11-19T00:06:51;12.10;;;7.87;;
51664;SDS011;37751;52.408;12.536;2023-11-19T00:09:22;13.10;;;8.50;;
51664;SDS011;37751;52.408;12.536;2023-11-19T00:11:56;12.17;;;7.97;;
51664;SDS011;37751;52.408;12.536;2023-11-19T00:14:28;10.90;;;7.33;;
51664;SDS011;37751;52.408;12.536;2023-11-19T00:16:59;10.70;;;7.13;;
51664;SDS011;37751;52.408;12.536;2023-11-19T00:19:31;14.37;;;6.93;;
51664;SDS011;37751;52.408;12.536;2023-11-19T00:22:03;11.10;;;6.70;;
51664;SDS011;37751;52.408;12.536;2023-11-19T00:24:34;10.60;;;6.23;;
51664;SDS011;37751;52.408;12.536;2023-11-19T00:27:09;9.73;;;6.47;;
51664;SDS011;37751;52.408;12.536;2023-11-19T00:29:41;12.13;;;6.20;;
51664;SDS011;37751;52.408;12.536;2023-11-19T00:32:13;10.70;;;6.27;;
51664;SDS011;37751;52.408;12.536;2023-11-19T00:34:46;9.87;;;6.37;;
51664;SDS011;37751;52.408;12.536;2023-11-19T00:37:17;8.13;;;5.87;;
51664;SDS011;37751;52.408;12.536;2023-11-19T00:39:49;7.17;;;5.23;;
51664;SDS011;37751;52.408;12.536;2023-11-19T00:42:23;10.60;;;5.37;;
51664;SDS011;37751;52.408;12.536;2023-11-19T00:44:55;12.03;;;7.30;;
51664;SDS011;37751;52.408;12.536;2023-11-19T00:47:30;9.70;;;5.57;;
51664;SDS011;37751;52.408;12.536;2023-11-19T00:50:02;9.60;;;6.30;;
51664;SDS011;37751;52.408;12.536;2023-11-19T00:52:37;8.03;;;5.73;;
51664;SDS011;37751;52.408;12.536;2023-11-19T00:55:09;6.23;;;5.13;;
51664;SDS011;37751;52.408;12.536;2023-11-19T00:57:47;8.27;;;5.00;;
51664;SDS011;37751;52.408;12.536;2023-11-19T01:00:18;8.97;;;5.40;;
51664;SDS011;37751;52.408;12.536;2023-11-19T01:02:51;7.77;;;5.03;;
51664;SDS011;37751;52.408;12.536;2023-11-19T01:05:23;10.30;;;6.23;;
51664;SDS011;37751;52.408;12.536;2023-11-19T01:07:55;8.07;;;5.37;;
51664;SDS011;37751;52.408;12.536;2023-11-19T01:10:27;10.57;;;4.97;;
51664;SDS011;37751;52.408;12.536;2023-11-19T01:13:02;7.07;;;5.20;;
51664;SDS011;37751;52.408;12.536;2023-11-19T01:15:34;7.23;;;4.70;;
51664;SDS011;37751;52.408;12.536;2023-11-19T01:18:05;6.07;;;4.77;;
51664;SDS011;37751;52.408;12.536;2023-11-19T01:20:37;7.60;;;5.37;;
51664;SDS011;37751;52.408;12.536;2023-11-19T01:23:13;6.57;;;4.50;;
51664;SDS011;37751;52.408;12.536;2023-11-19T01:25:45;5.33;;;4.40;;
51664;SDS011;37751;52.408;12.536;2023-11-19T01:28:19;9.60;;;4.87;;
51664;SDS011;37751;52.408;12.536;2023-11-19T01:30:51;7.00;;;5.10;;
51664;SDS011;37751;52.408;12.536;2023-11-19T01:33:22;6.43;;;4.87;;
51664;SDS011;37751;52.408;12.536;2023-11-19T01:35:55;7.63;;;5.47;;
51664;SDS011;37751;52.408;12.536;2023-11-19T01:38:26;10.90;;;5.73;;
51664;SDS011;37751;52.408;12.536;2023-11-19T01:40:58;7.50;;;5.60;;
51664;SDS011;37751;52.408;12.536;2023-11-19T01:43:37;6.93;;;5.63;;
51664;SDS011;37751;52.408;12.536;2023-11-19T01:46:10;8.83;;;5.30;;
51664;SDS011;37751;52.408;12.536;2023-11-19T01:48:44;9.53;;;6.27;;
51664;SDS011;37751;52.408;12.536;2023-11-19T01:51:17;8.47;;;5.93;;
51664;SDS011;37751;52.408;12.536;2023-11-19T01:53:48;9.10;;;6.60;;
51664;SDS011;37751;52.408;12.536;2023-11-19T01:56:20;12.73;;;8.70;;
51664;SDS011;37751;52.408;12.536;2023-11-19T01:58:56;8.33;;;6.47;;
51664;SDS011;37751;52.408;12.536;2023-11-19T02:01:28;9.83;;;5.90;;
51664;SDS011;37751;52.408;12.536;2023-11-19T02:04:02;11.17;;;6.57;;
51664;SDS011;37751;52.408;12.536;2023-11-19T02:06:35;6.90;;;5.47;;
51664;SDS011;37751;52.408;12.536;2023-11-19T02:09:10;7.90;;;5.70;;
51664;SDS011;37751;52.408;12.536;2023-11-19T02:11:44;9.67;;;5.77;;
51664;SDS011;37751;52.408;12.536;2023-11-19T02:14:22;9.37;;;6.53;;
51664;SDS011;37751;52.408;12.536;2023-11-19T02:16:56;10.07;;;6.23;;
51664;SDS011;37751;52.408;12.536;2023-11-19T02:19:27;9.67;;;7.17;;
51664;SDS011;37751;52.408;12.536;2023-11-19T02:21:59;10.27;;;6.60;;
51664;SDS011;37751;52.408;12.536;2023-11-19T02:24:32;7.60;;;5.97;;
51664;SDS011;37751;52.408;12.536;2023-11-19T02:27:07;8.57;;;6.27;;
51664;SDS011;37751;52.408;12.536;2023-11-19T02:29:48;11.53;;;6.67;;
51664;SDS011;37751;52.408;12.536;2023-11-19T02:32:21;9.60;;;6.53;;
51664;SDS011;37751;52.408;12.536;2023-11-19T02:34:54;9.47;;;6.23;;
51664;SDS011;37751;52.408;12.536;2023-11-19T02:37:33;8.10;;;5.93;;
51664;SDS011;37751;52.408;12.536;2023-11-19T02:40:06;11.13;;;6.60;;
51664;SDS011;37751;52.408;12.536;2023-11-19T02:42:40;8.00;;;6.60;;
51664;SDS011;37751;52.408;12.536;2023-11-19T02:45:14;9.77;;;6.33;;
51664;SDS011;37751;52.408;12.536;2023-11-19T02:47:46;12.27;;;6.50;;
51664;SDS011;37751;52.408;12.536;2023-11-19T02:50:19;8.27;;;6.70;;
51664;SDS011;37751;52.408;12.536;2023-11-19T02:52:53;9.90;;;7.40;;
51664;SDS011;37751;52.408;12.536;2023-11-19T02:55:27;9.27;;;6.53;;
51664;SDS011;37751;52.408;12.536;2023-11-19T02:58:05;10.60;;;7.33;;
51664;SDS011;37751;52.408;12.536;2023-11-19T03:00:50;9.17;;;6.47;;
51664;SDS011;37751;52.408;12.536;2023-11-19T03:03:28;7.60;;;5.77;;
51664;SDS011;37751;52.408;12.536;2023-11-19T03:06:06;8.17;;;5.60;;
51664;SDS011;37751;52.408;12.536;2023-11-19T03:08:38;9.17;;;5.97;;
51664;SDS011;37751;52.408;12.536;2023-11-19T03:11:09;7.73;;;5.03;;
51664;SDS011;37751;52.408;12.536;2023-11-19T03:13:41;8.23;;;5.87;;
51664;SDS011;37751;52.408;12.536;2023-11-19T03:16:16;6.97;;;5.80;;
51664;SDS011;37751;52.408;12.536;2023-11-19T03:18:48;8.13;;;6.03;;
51664;SDS011;37751;52.408;12.536;2023-11-19T03:21:19;8.00;;;5.80;;
51664;SDS011;37751;52.408;12.536;2023-11-19T03:23:58;6.87;;;5.40;;
51664;SDS011;37751;52.408;12.536;2023-11-19T03:26:30;6.60;;;5.63;;
51664;SDS011;37751;52.408;12.536;2023-11-19T03:29:02;7.77;;;6.27;;
51664;SDS011;37751;52.408;12.536;2023-11-19T03:31:36;9.83;;;5.73;;
51664;SDS011;37751;52.408;12.536;2023-11-19T03:34:12;7.33;;;5.57;;
51664;SDS011;37751;52.408;12.536;2023-11-19T03:36:44;6.03;;;5.43;;
51664;SDS011;37751;52.408;12.536;2023-11-19T03:39:16;7.83;;;5.47;;
51664;SDS011;37751;52.408;12.536;2023-11-19T03:41:47;7.60;;;5.33;;
51664;SDS011;37751;52.408;12.536;2023-11-19T03:44:19;7.50;;;4.83;;
51664;SDS011;37751;52.408;12.536;2023-11-19T03:46:53;6.27;;;5.07;;
51664;SDS011;37751;52.408;12.536;2023-11-19T03:49:24;6.60;;;5.17;;
51664;SDS011;37751;52.408;12.536;2023-11-19T03:51:55;6.77;;;5.47;;
51664;SDS011;37751;52.408;12.536;2023-11-19T03:54:27;6.97;;;5.10;;
51664;SDS011;37751;52.408;12.536;2023-11-19T03:57:00;6.80;;;5.00;;
51664;SDS011;37751;52.408;12.536;2023-11-19T03:59:32;6.83;;;4.97;;
51664;SDS011;37751;52.408;12.536;2023-11-19T04:02:06;5.87;;;5.20;;
51664;SDS011;37751;52.408;12.536;2023-11-19T04:04:38;7.77;;;5.80;;
51664;SDS011;37751;52.408;12.536;2023-11-19T04:07:09;6.40;;;5.47;;
51664;SDS011;37751;52.408;12.536;2023-11-19T04:09:40;6.37;;;4.73;;
51664;SDS011;37751;52.408;12.536;2023-11-19T04:12:13;7.63;;;5.67;;
51664;SDS011;37751;52.408;12.536;2023-11-19T04:14:45;10.63;;;5.33;;
51664;SDS011;37751;52.408;12.536;2023-11-19T04:17:30;7.17;;;5.50;;
51664;SDS011;37751;52.408;12.536;2023-11-19T04:20:01;9.57;;;6.07;;
51664;SDS011;37751;52.408;12.536;2023-11-19T04:22:37;5.77;;;5.10;;
51664;SDS011;37751;52.408;12.536;2023-11-19T04:25:09;8.67;;;5.30;;
51664;SDS011;37751;52.408;12.536;2023-11-19T04:27:42;6.40;;;5.27;;
51664;SDS011;37751;52.408;12.536;2023-11-19T04:30:15;5.90;;;4.90;;
51664;SDS011;37751;52.408;12.536;2023-11-19T04:32:49;7.23;;;4.83;;
51664;SDS011;37751;52.408;12.536;2023-11-19T04:35:21;5.70;;;5.10;;
51664;SDS011;37751;52.408;12.536;2023-11-19T04:37:53;6.00;;;4.87;;
51664;SDS011;37751;52.408;12.536;2023-11-19T04:40:25;5.67;;;4.73;;
51664;SDS011;37751;52.408;12.536;2023-11-19T04:42:57;5.10;;;4.60;;
51664;SDS011;37751;52.408;12.536;2023-11-19T04:45:28;6.60;;;5.13;;
51664;SDS011;37751;52.408;12.536;2023-11-19T04:48:03;6.23;;;5.43;;
51664;SDS011;37751;52.408;12.536;2023-11-19T04:50:36;5.53;;;4.83;;
51664;SDS011;37751;52.408;12.536;2023-11-19T04:53:07;6.60;;;4.73;;
51664;SDS011;37751;52.408;12.536;2023-11-19T04:55:39;5.97;;;4.90;;
51664;SDS011;37751;52.408;12.536;2023-11-19T04:58:10;8.27;;;4.17;;
51664;SDS011;37751;52.408;12.536;2023-11-19T05:00:41;5.87;;;4.87;;
51664;SDS011;37751;52.408;12.536;2023-11-19T05:03:16;7.77;;;5.07;;
51664;SDS011;37751;52.408;12.536;2023-11-19T05:05:47;7.27;;;4.77;;
51664;SDS011;37751;52.408;12.536;2023-11-19T05:08:19;6.97;;;4.53;;
51664;SDS011;37751;52.408;12.536;2023-11-19T05:10:50;7.23;;;4.83;;
51664;SDS011;37751;52.408;12.536;2023-11-19T05:13:22;5.60;;;4.43;;
51664;SDS011;37751;52.408;12.536;2023-11-19T05:15:53;5.97;;;4.60;;
51664;SDS011;37751;52.408;12.536;2023-11-19T05:18:27;6.20;;;4.83;;
51664;SDS011;37751;52.408;12.536;2023-11-19T05:20:58;8.73;;;4.50;;
51664;SDS011;37751;52.408;12.536;2023-11-19T05:23:30;7.13;;;4.63;;
51664;SDS011;37751;52.408;12.536;2023-11-19T05:26:02;5.80;;;4.20;;
51664;SDS011;37751;52.408;12.536;2023-11-19T05:28:34;6.17;;;4.10;;
51664;SDS011;37751;52.408;12.536;2023-11-19T05:31:08;6.97;;;4.30;;
51664;SDS011;37751;52.408;12.536;2023-11-19T05:33:42;4.80;;;4.00;;
51664;SDS011;37751;52.408;12.536;2023-11-19T05:36:14;5.20;;;4.27;;
51664;SDS011;37751;52.408;12.536;2023-11-19T05:38:45;4.80;;;4.07;;
51664;SDS011;37751;52.408;12.536;2023-11-19T05:41:17;4.77;;;3.87;;
51664;SDS011;37751;52.408;12.536;2023-11-19T05:43:48;5.27;;;3.83;;
51664;SDS011;37751;52.408;12.536;2023-11-19T05:46:19;4.47;;;3.93;;
51664;SDS011;37751;52.408;12.536;2023-11-19T05:48:55;5.97;;;4.17;;
51664;SDS011;37751;52.408;12.536;2023-11-19T05:51:27;4.80;;;4.20;;
51664;SDS011;37751;52.408;12.536;2023-11-19T05:53:58;4.57;;;3.80;;
51664;SDS011;37751;52.408;12.536;2023-11-19T05:56:30;6.17;;;3.93;;
51664;SDS011;37751;52.408;12.536;2023-11-19T05:59:02;7.23;;;3.77;;
51664;SDS011;37751;52.408;12.536;2023-11-19T06:01:36;7.07;;;3.83;;
51664;SDS011;37751;52.408;12.536;2023-11-19T06:04:11;4.70;;;4.07;;
51664;SDS011;37751;52.408;12.536;2023-11-19T06:06:43;6.70;;;3.80;;
51664;SDS011;37751;52.408;12.536;2023-11-19T06:09:14;4.13;;;3.63;;
51664;SDS011;37751;52.408;12.536;2023-11-19T06:11:46;4.80;;;3.60;;
51664;SDS011;37751;52.408;12.536;2023-11-19T06:14:18;3.37;;;3.07;;
51664;SDS011;37751;52.408;12.536;2023-11-19T06:16:51;4.77;;;3.23;;
51664;SDS011;37751;52.408;12.536;2023-11-19T06:19:25;3.20;;;2.90;;
51664;SDS011;37751;52.408;12.536;2023-11-19T06:21:57;4.07;;;3.20;;
51664;SDS011;37751;52.408;12.536;2023-11-19T06:24:28;3.93;;;3.00;;
51664;SDS011;37751;52.408;12.536;2023-11-19T06:27:00;6.10;;;2.90;;
51664;SDS011;37751;52.408;12.536;2023-11-19T06:29:31;4.40;;;2.63;;
51664;SDS011;37751;52.408;12.536;2023-11-19T06:32:04;2.83;;;2.47;;
51664;SDS011;37751;52.408;12.536;2023-11-19T06:34:41;5.53;;;3.33;;
51664;SDS011;37751;52.408;12.536;2023-11-19T06:37:13;4.33;;;2.67;;
51664;SDS011;37751;52.408;12.536;2023-11-19T06:39:44;5.10;;;2.20;;
51664;SDS011;37751;52.408;12.536;2023-11-19T06:42:16;3.57;;;2.47;;
51664;SDS011;37751;52.408;12.536;2023-11-19T06:44:47;7.77;;;2.37;;
51664;SDS011;37751;52.408;12.536;2023-11-19T06:47:18;2.53;;;2.07;;
51664;SDS011;37751;52.408;12.536;2023-11-19T06:49:54;4.70;;;2.53;;
51664;SDS011;37751;52.408;12.536;2023-11-19T06:52:26;2.80;;;2.27;;
51664;SDS011;37751;52.408;12.536;2023-11-19T06:54:58;3.70;;;2.37;;
51664;SDS011;37751;52.408;12.536;2023-11-19T06:57:32;2.30;;;2.03;;
51664;SDS011;37751;52.408;12.536;2023-11-19T07:00:05;3.33;;;2.30;;
51664;SDS011;37751;52.408;12.536;2023-11-19T07:02:38;3.07;;;1.93;;
51664;SDS011;37751;52.408;12.536;2023-11-19T07:05:14;4.10;;;2.30;;
51664;SDS011;37751;52.408;12.536;2023-11-19T07:07:46;2.70;;;2.30;;
51664;SDS011;37751;52.408;12.536;2023-11-19T07:10:17;3.60;;;2.47;;
51664;SDS011;37751;52.408;12.536;2023-11-19T07:12:49;8.23;;;2.47;;
51664;SDS011;37751;52.408;12.536;2023-11-19T07:15:20;3.40;;;2.57;;
51664;SDS011;37751;52.408;12.536;2023-11-19T07:17:52;2.93;;;2.30;;
51664;SDS011;37751;52.408;12.536;2023-11-19T07:20:32;4.00;;;2.30;;
51664;SDS011;37751;52.408;12.536;2023-11-19T07:23:09;2.50;;;2.27;;
51664;SDS011;37751;52.408;12.536;2023-11-19T07:25:42;4.67;;;2.03;;
51664;SDS011;37751;52.408;12.536;2023-11-19T07:28:14;3.80;;;2.20;;
51664;SDS011;37751;52.408;12.536;2023-11-19T07:30:45;2.97;;;1.90;;
51664;SDS011;37751;52.408;12.536;2023-11-19T07:33:16;2.70;;;2.10;;
51664;SDS011;37751;52.408;12.536;2023-11-19T07:35:51;2.40;;;2.20;;
51664;SDS011;37751;52.408;12.536;2023-11-19T07:38:23;3.07;;;1.60;;
51664;SDS011;37751;52.408;12.536;2023-11-19T07:40:54;2.40;;;2.20;;
51664;SDS011;37751;52.408;12.536;2023-11-19T07:43:26;2.53;;;1.77;;
51664;SDS011;37751;52.408;12.536;2023-11-19T07:45:57;2.23;;;1.70;;
51664;SDS011;37751;52.408;12.536;2023-11-19T07:48:31;4.57;;;1.52;;
51664;SDS011;37751;52.408;12.536;2023-11-19T07:51:06;2.50;;;1.57;;
51664;SDS011;37751;52.408;12.536;2023-11-19T07:53:37;3.30;;;1.53;;
51664;SDS011;37751;52.408;12.536;2023-11-19T07:56:09;2.33;;;1.75;;
51664;SDS011;37751;52.408;12.536;2023-11-19T07:58:43;3.00;;;1.42;;
51664;SDS011;37751;52.408;12.536;2023-11-19T08:01:16;3.33;;;1.13;;
51664;SDS011;37751;52.408;12.536;2023-11-19T08:03:48;2.50;;;1.30;;
51664;SDS011;37751;52.408;12.536;2023-11-19T08:06:25;3.85;;;1.38;;
51664;SDS011;37751;52.408;12.536;2023-11-19T08:08:57;1.20;;;1.10;;
51664;SDS011;37751;52.408;12.536;2023-11-19T08:11:28;2.00;;;1.30;;
51664;SDS011;37751;52.408;12.536;2023-11-19T08:14:00;1.20;;;1.00;;
51664;SDS011;37751;52.408;12.536;2023-11-19T08:16:32;2.72;;;1.27;;
51664;SDS011;37751;52.408;12.536;2023-11-19T08:19:05;1.30;;;1.10;;
51664;SDS011;37751;52.408;12.536;2023-11-19T08:21:39;2.30;;;1.50;;
51664;SDS011;37751;52.408;12.536;2023-11-19T08:24:11;3.97;;;0.90;;
51664;SDS011;37751;52.408;12.536;2023-11-19T08:26:42;2.95;;;1.10;;
51664;SDS011;37751;52.408;12.536;2023-11-19T08:29:29;3.22;;;1.20;;
51664;SDS011;37751;52.408;12.536;2023-11-19T08:32:00;2.90;;;1.00;;
51664;SDS011;37751;52.408;12.536;2023-11-19T08:34:33;3.88;;;1.23;;
51664;SDS011;37751;52.408;12.536;2023-11-19T08:37:08;2.58;;;1.05;;
51664;SDS011;37751;52.408;12.536;2023-11-19T08:39:40;2.53;;;1.05;;
51664;SDS011;37751;52.408;12.536;2023-11-19T08:42:11;17.60;;;1.70;;
51664;SDS011;37751;52.408;12.536;2023-11-19T08:44:43;5.40;;;1.30;;
51664;SDS011;37751;52.408;12.536;2023-11-19T08:47:22;5.80;;;1.38;;
51664;SDS011;37751;52.408;12.536;2023-11-19T08:49:53;4.20;;;1.35;;
51664;SDS011;37751;52.408;12.536;2023-11-19T08:52:31;5.18;;;0.98;;
51664;SDS011;37751;52.408;12.536;2023-11-19T08:55:03;1.20;;;0.90;;
51664;SDS011;37751;52.408;12.536;2023-11-19T08:57:37;3.33;;;1.10;;
51664;SDS011;37751;52.408;12.536;2023-11-19T09:00:08;1.42;;;1.13;;
51664;SDS011;37751;52.408;12.536;2023-11-19T09:02:41;5.10;;;1.52;;
51664;SDS011;37751;52.408;12.536;2023-11-19T09:05:13;2.33;;;1.38;;
51664;SDS011;37751;52.408;12.536;2023-11-19T09:07:48;3.03;;;1.30;;
51664;SDS011;37751;52.408;12.536;2023-11-19T09:10:19;7.32;;;1.33;;
51664;SDS011;37751;52.408;12.536;2023-11-19T09:12:51;11.95;;;1.50;;
51664;SDS011;37751;52.408;12.536;2023-11-19T09:15:24;6.45;;;1.40;;
51664;SDS011;37751;52.408;12.536;2023-11-19T09:17:56;5.05;;;1.20;;
51664;SDS011;37751;52.408;12.536;2023-11-19T09:20:27;5.03;;;1.23;;
51664;SDS011;37751;52.408;12.536;2023-11-19T09:23:08;3.85;;;1.23;;
51664;SDS011;37751;52.408;12.536;2023-11-19T09:25:40;3.10;;;1.40;;
51664;SDS011;37751;52.408;12.536;2023-11-19T09:28:12;7.70;;;1.40;;
51664;SDS011;37751;52.408;12.536;2023-11-19T09:30:44;4.00;;;1.33;;
51664;SDS011;37751;52.408;12.536;2023-11-19T09:33:16;5.38;;;1.10;;
51664;SDS011;37751;52.408;12.536;2023-11-19T09:35:47;6.80;;;1.27;;
51664;SDS011;37751;52.408;12.536;2023-11-19T09:38:23;4.13;;;1.60;;
51664;SDS011;37751;52.408;12.536;2023-11-19T09:40:54;9.60;;;2.72;;
51664;SDS011;37751;52.408;12.536;2023-11-19T09:43:26;6.72;;;1.27;;
51664;SDS011;37751;52.408;12.536;2023-11-19T09:45:58;3.85;;;1.27;;
51664;SDS011;37751;52.408;12.536;2023-11-19T09:48:38;6.65;;;1.88;;
51664;SDS011;37751;52.408;12.536;2023-11-19T09:51:10;7.97;;;1.55;;
51664;SDS011;37751;52.408;12.536;2023-11-19T09:53:45;5.75;;;1.13;;
51664;SDS011;37751;52.408;12.536;2023-11-19T09:56:16;4.07;;;1.20;;
51664;SDS011;37751;52.408;12.536;2023-11-19T09:58:49;4.93;;;1.60;;
51664;SDS011;37751;52.408;12.536;2023-11-19T10:01:21;5.45;;;1.60;;
51664;SDS011;37751;52.408;12.536;2023-11-19T10:03:55;7.47;;;1.55;;
51664;SDS011;37751;52.408;12.536;2023-11-19T10:06:28;9.02;;;1.48;;
51664;SDS011;37751;52.408;12.536;2023-11-19T10:09:02;12.85;;;2.42;;
51664;SDS011;37751;52.408;12.536;2023-11-19T10:11:34;8.45;;;2.15;;
51664;SDS011;37751;52.408;12.536;2023-11-19T10:14:06;9.23;;;2.08;;
51664;SDS011;37751;52.408;12.536;2023-11-19T10:16:38;9.38;;;2.50;;
51664;SDS011;37751;52.408;12.536;2023-11-19T10:19:11;11.80;;;1.95;;
51664;SDS011;37751;52.408;12.536;2023-11-19T10:21:50;8.52;;;2.60;;
51664;SDS011;37751;52.408;12.536;2023-11-19T10:24:33;17.60;;;3.63;;
51664;SDS011;37751;52.408;12.536;2023-11-19T10:27:12;11.07;;;2.50;;
51664;SDS011;37751;52.408;12.536;2023-11-19T10:29:44;13.55;;;2.90;;
51664;SDS011;37751;52.408;12.536;2023-11-19T10:32:17;9.88;;;2.40;;
51664;SDS011;37751;52.408;12.536;2023-11-19T10:35:04;11.35;;;2.88;;
51664;SDS011;37751;52.408;12.536;2023-11-19T10:37:40;10.80;;;2.85;;
51664;SDS011;37751;52.408;12.536;2023-11-19T10:40:14;8.63;;;2.08;;
51664;SDS011;37751;52.408;12.536;2023-11-19T10:42:46;9.50;;;2.40;;
51664;SDS011;37751;52.408;12.536;2023-11-19T10:45:23;13.75;;;2.90;;
51664;SDS011;37751;52.408;12.536;2023-11-19T10:47:54;11.65;;;3.63;;
51664;SDS011;37751;52.408;12.536;2023-11-19T10:50:27;7.07;;;2.35;;
51664;SDS011;37751;52.408;12.536;2023-11-19T10:52:59;16.50;;;2.92;;
51664;SDS011;37751;52.408;12.536;2023-11-19T10:55:34;11.20;;;2.58;;
51664;SDS011;37751;52.408;12.536;2023-11-19T10:58:08;17.90;;;3.78;;
51664;SDS011;37751;52.408;12.536;2023-11-19T11:00:42;17.52;;;3.03;;
51664;SDS011;37751;52.408;12.536;2023-11-19T11:03:16;15.93;;;3.25;;
51664;SDS011;37751;52.408;12.536;2023-11-19T11:05:51;14.13;;;2.97;;
51664;SDS011;37751;52.408;12.536;2023-11-19T11:08:24;16.83;;;3.25;;
51664;SDS011;37751;52.408;12.536;2023-11-19T11:10:59;18.30;;;4.10;;
51664;SDS011;37751;52.408;12.536;2023-11-19T11:13:32;22.85;;;4.35;;
51664;SDS011;37751;52.408;12.536;2023-11-19T11:16:06;14.77;;;2.95;;
51664;SDS011;37751;52.408;12.536;2023-11-19T11:18:39;22.27;;;4.40;;
51664;SDS011;37751;52.408;12.536;2023-11-19T11:21:14;26.85;;;3.60;;
51664;SDS011;37751;52.408;12.536;2023-11-19T11:30:24;19.00;;;3.83;;
51664;SDS011;37751;52.408;12.536;2023-11-19T11:33:15;18.55;;;3.63;;
51664;SDS011;37751;52.408;12.536;2023-11-19T11:36:05;25.00;;;4.72;;
51664;SDS011;37751;52.408;12.536;2023-11-19T11:38:47;29.00;;;5.78;;
51664;SDS011;37751;52.408;12.536;2023-11-19T11:41:20;32.53;;;7.30;;
51664;SDS011;37751;52.408;12.536;2023-11-19T11:43:59;23.38;;;5.13;;
51664;SDS011;37751;52.408;12.536;2023-11-19T11:49:25;18.50;;;4.40;;
51664;SDS011;37751;52.408;12.536;2023-11-19T11:52:02;29.52;;;4.82;;
51664;SDS011;37751;52.408;12.536;2023-11-19T11:54:35;25.38;;;5.20;;
51664;SDS011;37751;52.408;12.536;2023-11-19T11:57:07;23.92;;;4.60;;
51664;SDS011;37751;52.408;12.536;2023-11-19T11:59:50;33.38;;;5.82;;
51664;SDS011;37751;52.408;12.536;2023-11-19T12:02:22;31.60;;;5.78;;
51664;SDS011;37751;52.408;12.536;2023-11-19T12:04:55;33.25;;;7.03;;
51664;SDS011;37751;52.408;12.536;2023-11-19T12:07:28;31.10;;;5.63;;
51664;SDS011;37751;52.408;12.536;2023-11-19T12:10:05;32.47;;;4.82;;
51664;SDS011;37751;52.408;12.536;2023-11-19T12:12:39;30.15;;;5.53;;
51664;SDS011;37751;52.408;12.536;2023-11-19T12:15:13;37.38;;;5.78;;
51664;SDS011;37751;52.408;12.536;2023-11-19T12:17:47;29.70;;;5.05;;
51664;SDS011;37751;52.408;12.536;2023-11-19T12:20:20;31.40;;;5.32;;
51664;SDS011;37751;52.408;12.536;2023-11-19T12:22:56;26.77;;;4.25;;
51664;SDS011;37751;52.408;12.536;2023-11-19T12:25:28;31.08;;;5.28;;
51664;SDS011;37751;52.408;12.536;2023-11-19T12:28:11;31.17;;;4.95;;
51664;SDS011;37751;52.408;12.536;2023-11-19T12:30:47;30.85;;;4.63;;
51664;SDS011;37751;52.408;12.536;2023-11-19T12:33:18;27.02;;;4.80;;
51664;SDS011;37751;52.408;12.536;2023-11-19T12:35:50;34.65;;;5.55;;
51664;SDS011;37751;52.408;12.536;2023-11-19T12:38:22;27.85;;;5.38;;
51664;SDS011;37751;52.408;12.536;2023-11-19T12:41:04;22.23;;;4.45;;
51664;SDS011;37751;52.408;12.536;2023-11-19T12:43:38;23.83;;;3.75;;
51664;SDS011;37751;52.408;12.536;2023-11-19T12:46:23;32.05;;;5.45;;
51664;SDS011;37751;52.408;12.536;2023-11-19T12:48:55;24.33;;;4.40;;
51664;SDS011;37751;52.408;12.536;2023-11-19T12:51:31;20.30;;;3.58;;
51664;SDS011;37751;52.408;12.536;2023-11-19T12:54:03;28.10;;;5.05;;
51664;SDS011;37751;52.408;12.536;2023-11-19T12:56:35;29.98;;;4.75;;
51664;SDS011;37751;52.408;12.536;2023-11-19T12:59:12;28.48;;;4.68;;
51664;SDS011;37751;52.408;12.536;2023-11-19T13:01:56;30.25;;;4.57;;
51664;SDS011;37751;52.408;12.536;2023-11-19T13:04:30;25.63;;;5.13;;
51664;SDS011;37751;52.408;12.536;2023-11-19T13:07:01;34.22;;;5.57;;
51664;SDS011;37751;52.408;12.536;2023-11-19T13:09:34;32.75;;;5.40;;
51664;SDS011;37751;52.408;12.536;2023-11-19T13:12:12;39.30;;;6.57;;
51664;SDS011;37751;52.408;12.536;2023-11-19T13:14:45;33.40;;;6.00;;
51664;SDS011;37751;52.408;12.536;2023-11-19T13:17:19;37.17;;;5.72;;
51664;SDS011;37751;52.408;12.536;2023-11-19T13:19:51;34.72;;;5.95;;
51664;SDS011;37751;52.408;12.536;2023-11-19T13:22:24;24.33;;;4.65;;
51664;SDS011;37751;52.408;12.536;2023-11-19T13:24:56;39.00;;;5.93;;
51664;SDS011;37751;52.408;12.536;2023-11-19T13:27:28;37.22;;;6.13;;
51664;SDS011;37751;52.408;12.536;2023-11-19T13:30:00;30.63;;;4.97;;
51664;SDS011;37751;52.408;12.536;2023-11-19T13:32:56;28.60;;;4.93;;
51664;SDS011;37751;52.408;12.536;2023-11-19T13:35:28;29.65;;;4.63;;
51664;SDS011;37751;52.408;12.536;2023-11-19T13:37:59;27.25;;;4.28;;
51664;SDS011;37751;52.408;12.536;2023-11-19T13:40:31;30.52;;;6.05;;
51664;SDS011;37751;52.408;12.536;2023-11-19T13:43:02;34.00;;;5.53;;
51664;SDS011;37751;52.408;12.536;2023-11-19T13:45:34;33.22;;;6.45;;
51664;SDS011;37751;52.408;12.536;2023-11-19T13:48:09;28.17;;;5.00;;
51664;SDS011;37751;52.408;12.536;2023-11-19T13:50:40;21.55;;;4.65;;
51664;SDS011;37751;52.408;12.536;2023-11-19T13:53:12;26.48;;;5.35;;
51664;SDS011;37751;52.408;12.536;2023-11-19T13:55:43;31.55;;;3.67;;
51664;SDS011;37751;52.408;12.536;2023-11-19T13:58:15;24.98;;;4.05;;
51664;SDS011;37751;52.408;12.536;2023-11-19T14:00:46;22.17;;;3.67;;
51664;SDS011;37751;52.408;12.536;2023-11-19T14:03:20;23.80;;;4.43;;
51664;SDS011;37751;52.408;12.536;2023-11-19T14:05:52;34.00;;;6.12;;
51664;SDS011;37751;52.408;12.536;2023-11-19T14:08:25;25.40;;;6.38;;
51664;SDS011;37751;52.408;12.536;2023-11-19T14:10:57;32.00;;;7.47;;
51664;SDS011;37751;52.408;12.536;2023-11-19T14:13:29;15.63;;;3.65;;
51664;SDS011;37751;52.408;12.536;2023-11-19T14:16:01;21.55;;;4.05;;
51664;SDS011;37751;52.408;12.536;2023-11-19T14:18:39;24.70;;;4.38;;
51664;SDS011;37751;52.408;12.536;2023-11-19T14:21:11;18.45;;;3.47;;
51664;SDS011;37751;52.408;12.536;2023-11-19T14:23:43;20.98;;;3.65;;
51664;SDS011;37751;52.408;12.536;2023-11-19T14:26:14;25.40;;;4.03;;
51664;SDS011;37751;52.408;12.536;2023-11-19T14:28:46;23.88;;;4.07;;
51664;SDS011;37751;52.408;12.536;2023-11-19T14:31:20;22.40;;;4.32;;
51664;SDS011;37751;52.408;12.536;2023-11-19T14:33:58;24.88;;;4.13;;
51664;SDS011;37751;52.408;12.536;2023-11-19T14:36:30;22.90;;;3.80;;
51664;SDS011;37751;52.408;12.536;2023-11-19T14:39:02;24.80;;;4.82;;
51664;SDS011;37751;52.408;12.536;2023-11-19T14:41:34;28.75;;;5.18;;
51664;SDS011;37751;52.408;12.536;2023-11-19T14:44:06;24.02;;;4.60;;
51664;SDS011;37751;52.408;12.536;2023-11-19T14:46:37;21.65;;;4.72;;
51664;SDS011;37751;52.408;12.536;2023-11-19T14:49:11;21.67;;;4.18;;
51664;SDS011;37751;52.408;12.536;2023-11-19T14:51:43;18.98;;;5.10;;
51664;SDS011;37751;52.408;12.536;2023-11-19T14:54:15;30.13;;;5.35;;
51664;SDS011;37751;52.408;12.536;2023-11-19T14:56:46;35.70;;;4.95;;
51664;SDS011;37751;52.408;12.536;2023-11-19T14:59:19;30.98;;;4.93;;
51664;SDS011;37751;52.408;12.536;2023-11-19T15:01:50;30.00;;;4.55;;
51664;SDS011;37751;52.408;12.536;2023-11-19T15:04:24;21.45;;;3.42;;
51664;SDS011;37751;52.408;12.536;2023-11-19T15:06:57;30.35;;;4.35;;
51664;SDS011;37751;52.408;12.536;2023-11-19T15:09:29;21.95;;;4.65;;
51664;SDS011;37751;52.408;12.536;2023-11-19T15:12:00;35.55;;;5.40;;
51664;SDS011;37751;52.408;12.536;2023-11-19T15:14:33;26.60;;;5.15;;